createdAt,value
2022-11-15T00:00:12.671Z,99067.03
2022-11-15T00:03:19.553Z,99071.34
2022-11-15T00:06:26.730Z,99081.59
2022-11-15T00:09:32.598Z,99077.28
2022-11-15T00:12:38.653Z,99083.22
2022-11-15T00:15:44.720Z,99073.00
2022-11-15T00:18:51.169Z,99073.06
2022-11-15T00:21:58.386Z,99067.88
2022-11-15T00:25:04.434Z,99063.53
2022-11-15T00:28:10.407Z,99069.47
2022-11-15T00:31:17.054Z,99054.09
2022-11-15T00:34:22.954Z,99055.06
2022-11-15T00:37:30.282Z,99061.78
2022-11-15T00:40:36.364Z,99053.31
2022-11-15T00:43:44.597Z,99060.19
2022-11-15T00:46:51.230Z,99052.59
2022-11-15T00:49:57.206Z,99053.53
2022-11-15T00:53:04.733Z,99042.47
2022-11-15T00:56:10.951Z,99049.22
2022-11-15T00:59:17.110Z,99054.34
2022-11-15T01:02:23.223Z,99050.97
2022-11-15T01:05:29.187Z,99048.44
2022-11-15T01:08:36.855Z,99049.34
2022-11-15T01:11:42.879Z,99047.59
2022-11-15T01:14:48.502Z,99039.09
2022-11-15T01:17:54.421Z,99038.31
2022-11-15T01:21:00.290Z,99038.31
2022-11-15T01:24:08.756Z,99040.03
2022-11-15T01:27:14.540Z,99040.03
2022-11-15T01:30:20.896Z,99034.09
2022-11-15T01:33:26.666Z,99032.47
2022-11-15T01:36:32.910Z,99035.16
2022-11-15T01:39:40.248Z,99041.06
2022-11-15T01:42:46.301Z,99030.84
2022-11-15T01:45:57.857Z,99027.47
2022-11-15T01:49:08.127Z,99034.34
2022-11-15T01:52:18.327Z,99026.66
2022-11-15T01:55:29.213Z,99026.66
2022-11-15T01:58:35.688Z,99023.28
2022-11-15T02:01:42.783Z,99021.41
2022-11-15T02:04:49.878Z,99019.78
2022-11-15T02:07:56.619Z,99009.53
2022-11-15T02:11:03.578Z,99011.19
2022-11-15T02:14:11.252Z,99009.41
2022-11-15T02:17:45.783Z,99006.84
2022-11-15T02:21:12.894Z,98995.81
2022-11-15T02:24:59.646Z,98988.25
2022-11-15T02:28:48.946Z,98979.88
2022-11-15T02:32:01.961Z,98980.78
2022-11-15T02:35:19.944Z,98974.28
2022-11-15T02:38:33.942Z,98975.19
2022-11-15T02:41:48.706Z,98972.75
2022-11-15T02:44:57.670Z,98968.69
2022-11-15T02:48:07.378Z,98961.97
2022-11-15T02:51:15.168Z,98968.00
2022-11-15T02:54:24.764Z,98958.69
2022-11-15T02:57:44.011Z,98952.06
2022-11-15T03:00:56.570Z,98942.78
2022-11-15T03:04:20.991Z,98940.31
2022-11-15T03:07:34.353Z,98941.25
2022-11-15T03:10:57.689Z,98932.88
2022-11-15T03:14:14.833Z,98934.75
2022-11-15T03:17:26.427Z,98934.75
2022-11-15T03:20:34.919Z,98924.59
2022-11-15T03:23:41.736Z,98934.84
2022-11-15T03:26:48.147Z,98936.59
2022-11-15T03:29:57.506Z,98941.03
2022-11-15T03:33:06.427Z,98938.47
2022-11-15T03:36:13.925Z,98937.63
2022-11-15T03:39:20.844Z,98938.56
2022-11-15T03:42:33.864Z,98924.97
2022-11-15T03:45:47.053Z,98932.66
2022-11-15T03:48:58.940Z,98926.72
2022-11-15T03:52:07.035Z,98931.84
2022-11-15T03:55:18.474Z,98938.69
2022-11-15T03:58:24.443Z,98937.75
2022-11-15T04:01:30.451Z,98924.97
2022-11-15T04:04:36.244Z,98918.09
2022-11-15T04:07:43.346Z,98915.66
2022-11-15T04:10:51.778Z,98931.00
2022-11-15T04:13:57.607Z,98930.09
2022-11-15T04:17:03.533Z,98933.56
2022-11-15T04:20:31.478Z,98935.31
2022-11-15T04:23:58.226Z,98940.56
2022-11-15T04:27:04.352Z,98936.38
2022-11-15T04:30:12.052Z,98930.31
2022-11-15T04:33:18.138Z,98933.81
2022-11-15T04:36:41.771Z,98934.72
2022-11-15T04:39:49.341Z,98928.94
2022-11-15T04:42:59.442Z,98924.63
2022-11-15T04:46:09.392Z,98922.91
2022-11-15T04:49:15.445Z,98923.81
2022-11-15T04:52:21.474Z,98930.56
2022-11-15T04:55:28.899Z,98924.50
2022-11-15T04:58:35.780Z,98918.47
2022-11-15T05:01:44.910Z,98911.69
2022-11-15T05:04:50.338Z,98906.59
2022-11-15T05:07:56.448Z,98905.91
2022-11-15T05:11:03.872Z,98899.97
2022-11-15T05:14:09.658Z,98897.50
2022-11-15T05:17:15.493Z,98898.34
2022-11-15T05:20:21.358Z,98892.41
2022-11-15T05:23:27.219Z,98891.56
2022-11-15T05:26:34.935Z,98894.97
2022-11-15T05:29:40.683Z,98877.94
2022-11-15T05:32:47.384Z,98876.22
2022-11-15T05:36:01.726Z,98883.88
2022-11-15T05:39:09.519Z,98879.69
2022-11-15T05:42:18.379Z,98883.06
2022-11-15T05:45:27.031Z,98879.69
2022-11-15T05:48:33.616Z,98877.25
2022-11-15T05:51:39.423Z,98868.78
2022-11-15T05:54:46.479Z,98875.63
2022-11-15T05:57:53.828Z,98874.00
2022-11-15T06:00:59.698Z,98872.50
2022-11-15T06:04:05.733Z,98880.19
2022-11-15T06:07:11.933Z,98885.31
2022-11-15T06:10:18.497Z,98882.84
2022-11-15T06:13:25.959Z,98882.84
2022-11-15T06:16:31.938Z,98877.72
2022-11-15T06:19:37.843Z,98881.22
2022-11-15T06:22:43.934Z,98878.56
2022-11-15T06:25:49.777Z,98881.22
2022-11-15T06:28:57.025Z,98886.34
2022-11-15T06:32:02.799Z,98881.22
2022-11-15T06:35:09.759Z,98889.81
2022-11-15T06:38:15.559Z,98884.72
2022-11-15T06:41:22.277Z,98883.06
2022-11-15T06:44:32.875Z,98889.13
2022-11-15T06:47:46.663Z,98896.78
2022-11-15T06:50:53.890Z,98888.44
2022-11-15T06:54:00.136Z,98886.78
2022-11-15T06:57:07.185Z,98889.34
2022-11-15T07:00:16.932Z,98881.81
2022-11-15T07:03:23.049Z,98889.47
2022-11-15T07:06:11.725Z,98891.22
2022-11-15T07:08:58.716Z,98885.16
2022-11-15T07:11:45.695Z,98890.28
2022-11-15T07:14:32.844Z,98885.16
2022-11-15T07:17:21.099Z,98885.03
2022-11-15T07:20:09.459Z,98882.47
2022-11-15T07:23:03.066Z,98880.63
2022-11-15T07:25:50.223Z,98878.88
2022-11-15T07:28:38.323Z,98889.81
2022-11-15T07:31:26.541Z,98889.81
2022-11-15T07:34:15.051Z,98887.94
2022-11-15T07:37:02.278Z,98898.91
2022-11-15T07:39:49.369Z,98897.00
2022-11-15T07:42:53.616Z,98896.94
2022-11-15T07:45:44.538Z,98899.38
2022-11-15T07:48:43.403Z,98895.84
2022-11-15T07:51:33.054Z,98905.06
2022-11-15T07:54:20.161Z,98900.78
2022-11-15T07:57:08.240Z,98894.63
2022-11-15T07:59:55.523Z,98891.94
2022-11-15T08:02:42.934Z,98894.38
2022-11-15T08:05:30.268Z,98890.78
2022-11-15T08:08:18.904Z,98894.13
2022-11-15T08:11:06.330Z,98888.91
2022-11-15T08:13:53.600Z,98889.59
2022-11-15T08:16:40.740Z,98896.34
2022-11-15T08:19:27.818Z,98889.38
2022-11-15T08:22:15.088Z,98879.84
2022-11-15T08:25:03.596Z,98872.97
2022-11-15T08:27:53.445Z,98881.34
2022-11-15T08:30:46.424Z,98868.53
2022-11-15T08:33:35.111Z,98869.22
2022-11-15T08:36:22.611Z,98871.66
2022-11-15T08:39:13.151Z,98861.41
2022-11-15T08:42:01.817Z,98861.19
2022-11-15T08:44:48.887Z,98867.94
2022-11-15T08:47:36.783Z,98853.28
2022-11-15T08:50:24.167Z,98857.44
2022-11-15T08:53:12.334Z,98850.47
2022-11-15T08:55:59.341Z,98856.28
2022-11-15T08:58:47.961Z,98847.66
2022-11-15T09:01:35.303Z,98856.97
2022-11-15T09:04:22.498Z,98850.94
2022-11-15T09:07:10.533Z,98859.28
2022-11-15T09:09:57.971Z,98851.59
2022-11-15T09:12:45.324Z,98854.88
2022-11-15T09:15:33.784Z,98856.50
2022-11-15T09:18:23.301Z,98855.53
2022-11-15T09:21:11.708Z,98850.19
2022-11-15T09:23:59.165Z,98843.31
2022-11-15T09:26:46.778Z,98851.81
2022-11-15T09:29:34.842Z,98845.75
2022-11-15T09:32:32.543Z,98848.19
2022-11-15T09:35:23.586Z,98844.72
2022-11-15T09:38:10.924Z,98840.38
2022-11-15T09:41:34.279Z,98847.97
2022-11-15T09:44:54.484Z,98845.41
2022-11-15T09:48:05.695Z,98849.56
2022-11-15T09:50:54.870Z,98839.19
2022-11-15T09:54:01.196Z,98842.47
2022-11-15T09:56:23.024Z,98843.16
2022-11-15T09:59:03.816Z,98835.25
2022-11-15T10:01:46.304Z,98832.41
2022-11-15T10:04:17.584Z,98827.88
2022-11-15T10:06:53.849Z,98830.19
2022-11-15T10:09:30.113Z,98834.25
2022-11-15T10:11:59.136Z,98823.88
2022-11-15T10:14:31.995Z,98827.00
2022-11-15T10:17:28.240Z,98824.31
2022-11-15T10:20:15.066Z,98823.41
2022-11-15T10:22:49.366Z,98820.69
2022-11-15T10:25:26.198Z,98813.69
2022-11-15T10:28:00.402Z,98799.16
2022-11-15T10:30:38.756Z,98806.72
2022-11-15T10:33:32.319Z,98807.50
2022-11-15T10:36:24.875Z,98804.00
2022-11-15T10:38:59.430Z,98801.31
2022-11-15T10:41:48.770Z,98798.75
2022-11-15T10:44:29.496Z,98802.81
2022-11-15T10:47:37.976Z,98796.06
2022-11-15T10:50:29.182Z,98790.81
2022-11-15T10:53:01.042Z,98778.84
2022-11-15T10:55:32.220Z,98776.13
2022-11-15T10:58:07.780Z,98776.81
2022-11-15T11:00:40.279Z,98772.38
2022-11-15T11:03:30.281Z,98762.13
2022-11-15T11:06:15.469Z,98760.38
2022-11-15T11:08:58.183Z,98754.31
2022-11-15T11:11:26.995Z,98755.94
2022-11-15T11:13:56.074Z,98764.31
2022-11-15T11:16:44.657Z,98742.09
2022-11-15T11:19:41.915Z,98747.09
2022-11-15T11:22:20.880Z,98756.38
2022-11-15T11:25:08.107Z,98741.84
2022-11-15T11:27:49.587Z,98734.81
2022-11-15T11:30:22.949Z,98734.69
2022-11-15T11:33:17.092Z,98739.00
2022-11-15T11:35:57.596Z,98734.59
2022-11-15T11:38:51.013Z,98720.00
2022-11-15T11:41:42.153Z,98716.50
2022-11-15T11:44:27.393Z,98714.59
2022-11-15T11:47:01.982Z,98711.91
2022-11-15T11:49:39.111Z,98698.16
2022-11-15T11:52:15.651Z,98698.03
2022-11-15T11:54:56.971Z,98691.97
2022-11-15T11:57:38.116Z,98687.63
2022-11-15T12:00:20.191Z,98684.16
2022-11-15T12:03:03.212Z,98679.84
2022-11-15T12:05:38.999Z,98678.88
2022-11-15T12:08:30.479Z,98674.59
2022-11-15T12:11:18.534Z,98660.81
2022-11-15T12:13:52.514Z,98661.63
2022-11-15T12:16:28.749Z,98658.94
2022-11-15T12:19:05.737Z,98661.38
2022-11-15T12:21:43.457Z,98644.13
2022-11-15T12:24:21.764Z,98647.47
2022-11-15T12:26:56.760Z,98635.44
2022-11-15T12:29:33.670Z,98631.94
2022-11-15T12:32:04.716Z,98622.53
2022-11-15T12:34:44.653Z,98626.69
2022-11-15T12:37:57.281Z,98625.09
2022-11-15T12:40:32.129Z,98624.13
2022-11-15T12:43:39.411Z,98619.97
2022-11-15T12:46:22.754Z,98618.19
2022-11-15T12:48:55.665Z,98613.06
2022-11-15T12:52:00.583Z,98619.81
2022-11-15T12:55:20.719Z,98612.28
2022-11-15T12:57:49.366Z,98617.41
2022-11-15T13:00:45.516Z,98615.63
2022-11-15T13:03:31.613Z,98605.38
2022-11-15T13:06:33.112Z,98603.47
2022-11-15T13:09:01.745Z,98599.31
2022-11-15T13:11:53.407Z,98594.19
2022-11-15T13:14:52.004Z,98595.13
2022-11-15T13:17:31.883Z,98598.47
2022-11-15T13:20:24.204Z,98596.75
2022-11-15T13:23:00.343Z,98596.75
2022-11-15T13:26:00.717Z,98583.09
2022-11-15T13:28:36.288Z,98584.88
2022-11-15T13:31:22.320Z,98576.25
2022-11-15T13:33:51.141Z,98581.38
2022-11-15T13:36:24.763Z,98571.09
2022-11-15T13:39:03.031Z,98566.78
2022-11-15T13:41:35.803Z,98564.22
2022-11-15T13:44:06.235Z,98550.59
2022-11-15T13:46:36.029Z,98552.09
2022-11-15T13:49:07.460Z,98550.31
2022-11-15T13:51:41.097Z,98539.28
2022-11-15T13:54:22.934Z,98539.28
2022-11-15T13:56:56.900Z,98529.00
2022-11-15T13:59:30.242Z,98529.66
2022-11-15T14:02:04.960Z,98530.59
2022-11-15T14:04:41.127Z,98527.91
2022-11-15T14:07:21.352Z,98519.56
2022-11-15T14:09:50.937Z,98512.53
2022-11-15T14:12:35.091Z,98513.34
2022-11-15T14:15:21.587Z,98516.84
2022-11-15T14:17:52.710Z,98515.09
2022-11-15T14:20:34.445Z,98511.72
2022-11-15T14:23:06.641Z,98497.97
2022-11-15T14:25:37.646Z,98503.09
2022-11-15T14:28:31.042Z,98497.97
2022-11-15T14:31:02.367Z,98496.34
2022-11-15T14:33:33.325Z,98493.63
2022-11-15T14:36:07.961Z,98488.50
2022-11-15T14:38:37.967Z,98481.75
2022-11-15T14:41:07.086Z,98480.81
2022-11-15T14:43:35.751Z,98480.00
2022-11-15T14:46:04.390Z,98473.94
2022-11-15T14:48:33.413Z,98466.38
2022-11-15T14:51:02.290Z,98459.50
2022-11-15T14:53:30.910Z,98460.44
2022-11-15T14:56:00.920Z,98464.78
2022-11-15T14:58:29.674Z,98464.78
2022-11-15T15:00:58.454Z,98459.63
2022-11-15T15:03:27.087Z,98456.25
2022-11-15T15:05:55.880Z,98456.25
2022-11-15T15:08:24.613Z,98450.31
2022-11-15T15:10:53.184Z,98442.63
2022-11-15T15:13:29.757Z,98440.06
2022-11-15T15:15:58.404Z,98428.34
2022-11-15T15:18:27.049Z,98426.56
2022-11-15T15:21:01.030Z,98423.19
2022-11-15T15:23:31.851Z,98413.09
2022-11-15T15:26:00.543Z,98409.59
2022-11-15T15:28:34.597Z,98406.19
2022-11-15T15:31:03.843Z,98401.06
2022-11-15T15:33:32.477Z,98389.22
2022-11-15T15:36:01.252Z,98389.22
2022-11-15T15:38:30.206Z,98383.25
2022-11-15T15:41:00.789Z,98374.78
2022-11-15T15:43:30.789Z,98371.38
2022-11-15T15:45:59.713Z,98364.53
2022-11-15T15:48:28.781Z,98370.59
2022-11-15T15:50:57.539Z,98370.59
2022-11-15T15:53:26.147Z,98376.50
2022-11-15T15:55:54.766Z,98380.03
2022-11-15T15:58:23.379Z,98381.78
2022-11-15T16:00:53.831Z,98384.19
2022-11-15T16:03:23.417Z,98380.03
2022-11-15T16:05:53.270Z,98386.91
2022-11-15T16:08:23.368Z,98385.31
2022-11-15T16:10:52.442Z,98376.78
2022-11-15T16:13:21.118Z,98378.56
2022-11-15T16:15:55.388Z,98387.06
2022-11-15T16:18:23.963Z,98376.78
2022-11-15T16:20:57.523Z,98370.88
2022-11-15T16:23:26.489Z,98364.91
2022-11-15T16:25:57.272Z,98366.69
2022-11-15T16:28:27.784Z,98368.44
2022-11-15T16:31:05.627Z,98359.94
2022-11-15T16:33:34.873Z,98363.56
2022-11-15T16:36:03.727Z,98359.28
2022-11-15T16:38:32.839Z,98353.31
2022-11-15T16:41:01.694Z,98353.31
2022-11-15T16:43:30.431Z,98349.03
2022-11-15T16:45:59.096Z,98349.03
2022-11-15T16:48:30.395Z,98338.78
2022-11-15T16:51:00.282Z,98336.19
2022-11-15T16:53:29.775Z,98339.56
2022-11-15T16:55:59.317Z,98335.25
2022-11-15T16:58:28.197Z,98329.31
2022-11-15T17:00:58.363Z,98319.84
2022-11-15T17:03:28.906Z,98316.50
2022-11-15T17:06:00.826Z,98309.59
2022-11-15T17:08:30.133Z,98305.44
2022-11-15T17:10:58.969Z,98310.44
2022-11-15T17:13:27.784Z,98304.47
2022-11-15T17:16:06.998Z,98301.91
2022-11-15T17:18:37.859Z,98293.28
2022-11-15T17:21:08.964Z,98292.47
2022-11-15T17:23:37.588Z,98295.84
2022-11-15T17:26:28.333Z,98295.84
2022-11-15T17:28:57.560Z,98295.84
2022-11-15T17:31:27.080Z,98292.34
2022-11-15T17:33:57.144Z,98291.66
2022-11-15T17:36:25.708Z,98285.59
2022-11-15T17:38:59.217Z,98283.16
2022-11-15T17:41:28.962Z,98289.09
2022-11-15T17:43:59.203Z,98283.97
2022-11-15T17:46:29.096Z,98275.34
2022-11-15T17:48:59.528Z,98275.47
2022-11-15T17:51:28.341Z,98277.09
2022-11-15T17:53:57.509Z,98274.53
2022-11-15T17:56:28.878Z,98264.28
2022-11-15T17:58:59.802Z,98259.97
2022-11-15T18:01:31.084Z,98256.59
2022-11-15T18:04:02.892Z,98262.53
2022-11-15T18:06:35.903Z,98267.66
2022-11-15T18:09:05.656Z,98261.72
2022-11-15T18:11:38.496Z,98254.84
2022-11-15T18:14:10.004Z,98254.84
2022-11-15T18:16:40.305Z,98254.84
2022-11-15T18:19:13.707Z,98251.31
2022-11-15T18:22:01.052Z,98249.72
2022-11-15T18:24:32.224Z,98242.16
2022-11-15T18:27:03.105Z,98242.94
2022-11-15T18:29:33.329Z,98245.41
2022-11-15T18:32:05.101Z,98242.00
2022-11-15T18:34:35.095Z,98241.22
2022-11-15T18:37:03.997Z,98236.88
2022-11-15T18:39:33.007Z,98236.88
2022-11-15T18:42:02.145Z,98230.81
2022-11-15T18:44:31.216Z,98230.81
2022-11-15T18:46:59.939Z,98230.81
2022-11-15T18:49:28.635Z,98230.69
2022-11-15T18:51:58.583Z,98228.25
2022-11-15T18:54:31.371Z,98231.63
2022-11-15T18:57:00.645Z,98224.75
2022-11-15T18:59:30.419Z,98224.75
2022-11-15T19:01:59.466Z,98217.06
2022-11-15T19:04:28.417Z,98216.13
2022-11-15T19:06:58.557Z,98210.16
2022-11-15T19:09:32.675Z,98210.03
2022-11-15T19:12:01.383Z,98205.88
2022-11-15T19:14:30.049Z,98199.91
2022-11-15T19:16:58.655Z,98197.34
2022-11-15T19:19:28.991Z,98204.91
2022-11-15T19:21:58.967Z,98198.19
2022-11-15T19:24:29.912Z,98205.88
2022-11-15T19:26:58.513Z,98197.22
2022-11-15T19:29:27.104Z,98200.75
2022-11-15T19:31:55.665Z,98202.47
2022-11-15T19:34:24.256Z,98203.31
2022-11-15T19:36:52.967Z,98200.75
2022-11-15T19:39:22.937Z,98202.31
2022-11-15T19:41:51.677Z,98192.22
2022-11-15T19:44:20.300Z,98194.00
2022-11-15T19:46:48.973Z,98196.56
2022-11-15T19:49:17.610Z,98196.56
2022-11-15T19:51:48.410Z,98197.22
2022-11-15T19:54:17.606Z,98187.94
2022-11-15T19:56:47.658Z,98184.53
2022-11-15T19:59:17.405Z,98181.81
2022-11-15T20:01:46.107Z,98183.75
2022-11-15T20:04:14.694Z,98177.66
2022-11-15T20:06:44.477Z,98180.22
2022-11-15T20:09:16.661Z,98174.97
2022-11-15T20:11:45.321Z,98162.28
2022-11-15T20:14:15.336Z,98175.09
2022-11-15T20:16:44.099Z,98174.13
2022-11-15T20:19:15.947Z,98164.03
2022-11-15T20:21:44.820Z,98167.41
2022-11-15T20:24:13.421Z,98175.75
2022-11-15T20:26:43.720Z,98165.50
2022-11-15T20:29:12.349Z,98168.06
2022-11-15T20:31:42.344Z,98172.41
2022-11-15T20:34:11.638Z,98160.38
2022-11-15T20:36:40.297Z,98166.28
2022-11-15T20:39:08.883Z,98165.50
2022-11-15T20:41:37.451Z,98160.38
2022-11-15T20:44:06.469Z,98150.91
2022-11-15T20:46:35.251Z,98155.25
2022-11-15T20:49:06.545Z,98156.03
2022-11-15T20:51:35.304Z,98147.56
2022-11-15T20:54:04.279Z,98142.44
2022-11-15T20:56:32.925Z,98131.22
2022-11-15T20:59:01.537Z,98130.41
2022-11-15T21:01:30.853Z,98122.88
2022-11-15T21:04:19.159Z,98110.19
2022-11-15T21:07:07.043Z,98110.19
2022-11-15T21:10:08.006Z,98103.44
2022-11-15T21:12:55.466Z,98117.25
2022-11-15T21:15:42.757Z,98109.56
2022-11-15T21:18:30.721Z,98107.94
2022-11-15T21:21:19.857Z,98104.53
2022-11-15T21:24:09.432Z,98094.28
2022-11-15T21:26:57.079Z,98098.63
2022-11-15T21:29:45.724Z,98094.28
2022-11-15T21:32:33.078Z,98096.84
2022-11-15T21:35:20.515Z,98098.63
2022-11-15T21:38:09.276Z,98097.81
2022-11-15T21:40:56.551Z,98099.56
2022-11-15T21:43:43.666Z,98113.19
2022-11-15T21:46:31.811Z,98097.81
2022-11-15T21:49:19.155Z,98088.53
2022-11-15T21:52:06.641Z,98085.94
2022-11-15T21:54:55.003Z,98085.94
2022-11-15T21:57:42.354Z,98089.31
2022-11-15T22:00:46.948Z,98085.16
2022-11-15T22:03:34.116Z,98091.22
2022-11-15T22:06:21.539Z,98082.72
2022-11-15T22:09:09.334Z,98077.59
2022-11-15T22:11:58.051Z,98080.16
2022-11-15T22:14:45.506Z,98072.47
2022-11-15T22:17:47.008Z,98065.75
2022-11-15T22:20:49.538Z,98070.03
2022-11-15T22:23:37.735Z,98076.00
2022-11-15T22:26:25.343Z,98069.25
2022-11-15T22:29:14.323Z,98072.75
2022-11-15T22:32:01.681Z,98081.91
2022-11-15T22:34:49.058Z,98076.94
2022-11-15T22:37:36.646Z,98072.75
2022-11-15T22:40:24.155Z,98070.19
2022-11-15T22:43:13.268Z,98072.75
2022-11-15T22:46:03.725Z,98074.38
2022-11-15T22:48:51.333Z,98066.84
2022-11-15T22:51:40.586Z,98064.41
2022-11-15T22:54:28.890Z,98059.28
2022-11-15T22:57:16.454Z,98064.41
2022-11-15T23:00:04.189Z,98061.88
2022-11-15T23:02:54.503Z,98044.88
2022-11-15T23:05:42.154Z,98046.63
2022-11-15T23:08:29.466Z,98037.31
2022-11-15T23:11:34.206Z,98033.16
2022-11-15T23:14:21.643Z,98037.47
2022-11-15T23:17:09.016Z,98041.78
2022-11-15T23:20:03.861Z,98040.97
2022-11-15T23:22:57.663Z,98032.63
2022-11-15T23:25:44.877Z,98036.00
2022-11-15T23:28:34.923Z,98040.31
2022-11-15T23:31:39.573Z,98034.53
2022-11-15T23:34:27.083Z,98043.16
2022-11-15T23:37:17.602Z,98037.09
2022-11-15T23:40:06.264Z,98049.09
2022-11-15T23:42:53.489Z,98043.97
2022-11-15T23:45:41.040Z,98032.91
2022-11-15T23:48:28.701Z,98038.03
2022-11-15T23:51:16.262Z,98041.41
2022-11-15T23:54:05.775Z,98032.91
2022-11-15T23:56:53.031Z,98038.97
2022-11-15T23:59:41.156Z,98036.41
